createdAt,value
2022-10-13T00:07:42.914Z,100
2022-10-13T00:17:20.523Z,100
2022-10-13T00:26:57.906Z,100
2022-10-13T00:36:35.282Z,100
2022-10-13T00:46:12.227Z,100
2022-10-13T00:55:48.929Z,100
2022-10-13T01:05:25.545Z,100
2022-10-13T01:15:02.160Z,100
2022-10-13T01:24:39.065Z,100
2022-10-13T01:34:15.390Z,100
2022-10-13T01:53:29.378Z,100
2022-10-13T02:03:05.956Z,100
2022-10-13T02:12:43.097Z,100
2022-10-13T02:22:19.544Z,100
2022-10-13T02:31:56.417Z,100
2022-10-13T02:41:33.160Z,100
2022-10-13T03:19:59.352Z,100
2022-10-13T03:29:36.021Z,100
2022-10-13T03:39:12.619Z,100
2022-10-13T03:48:49.678Z,100
2022-10-13T03:58:26.174Z,100
2022-10-13T04:08:03.539Z,100
2022-10-13T04:17:40.578Z,100
2022-10-13T04:27:17.783Z,100
2022-10-13T04:36:54.828Z,100
2022-10-13T04:46:31.924Z,100
2022-10-13T04:56:08.734Z,100
2022-10-13T05:05:45.747Z,100
2022-10-13T05:24:59.412Z,100
2022-10-13T05:34:36.107Z,100
2022-10-13T05:44:12.895Z,100
2022-10-13T05:53:53.026Z,100
2022-10-13T06:03:27.336Z,100
2022-10-13T06:13:04.795Z,100
2022-10-13T06:22:42.182Z,100
2022-10-13T06:32:19.359Z,100
2022-10-13T06:41:56.989Z,100
2022-10-13T06:51:34.922Z,100
2022-10-13T07:01:12.956Z,100
2022-10-13T07:10:50.964Z,99.35
2022-10-13T07:20:28.401Z,97.86
2022-10-13T07:30:06.694Z,95.51
2022-10-13T07:39:44.346Z,93.88
2022-10-13T07:49:21.829Z,93.91
2022-10-13T07:58:59.527Z,92.94
2022-10-13T08:08:37.518Z,91.02
2022-10-13T08:18:15.688Z,91.1
2022-10-13T08:27:55.725Z,89.5
2022-10-13T08:37:32.060Z,89.18
2022-10-13T08:47:09.942Z,88.01
2022-10-13T08:56:48.789Z,85.22
2022-10-13T09:06:26.758Z,84.78
2022-10-13T09:16:04.626Z,84.65
2022-10-13T09:35:20.915Z,82.98
2022-10-13T09:44:58.381Z,81.69
2022-10-13T09:54:36.753Z,80.4
2022-10-13T10:04:16.128Z,78.81
2022-10-13T10:13:54.887Z,75.28
2022-10-13T10:23:36.132Z,71.79
2022-10-13T10:33:23.364Z,66.66
2022-10-13T10:43:10.322Z,64.61
2022-10-13T10:52:44.399Z,66.56
2022-10-13T11:02:19.142Z,65.77
2022-10-13T11:12:06.992Z,60.52
2022-10-13T11:21:45.144Z,61.51
2022-10-13T11:31:37.200Z,59.55
2022-10-13T11:41:11.022Z,60.5
2022-10-13T11:50:45.402Z,60.17
2022-10-13T12:00:12.933Z,61.25
2022-10-13T12:09:47.390Z,63.8
2022-10-13T12:19:49.572Z,58.27
2022-10-13T12:29:17.392Z,58.59
2022-10-13T12:38:52.752Z,51.58
2022-10-13T12:48:25.632Z,52.19
2022-10-13T12:58:25.938Z,47.4
2022-10-13T13:07:38.784Z,51.21
2022-10-13T13:17:38.797Z,50.48
2022-10-13T13:27:11.202Z,49.06
2022-10-13T13:37:02.090Z,46.97
2022-10-13T13:46:37.190Z,47.98
2022-10-13T13:56:04.202Z,50.98
2022-10-13T14:05:35.881Z,53.89
2022-10-13T14:15:10.929Z,53.61
2022-10-13T14:24:47.020Z,54.88
2022-10-13T14:34:26.538Z,54.75
2022-10-13T14:44:03.847Z,55.94
2022-10-13T14:53:40.132Z,57.27
2022-10-13T15:03:14.842Z,59.14
2022-10-13T15:12:51.012Z,60.57
2022-10-13T15:22:27.091Z,63.37
2022-10-13T15:32:03.155Z,65.24
2022-10-13T15:41:39.902Z,65.94
2022-10-13T16:10:30.327Z,68.59
2022-10-13T16:20:07.161Z,69.56
2022-10-13T16:29:44.197Z,71.15
2022-10-13T16:39:21.042Z,72.14
2022-10-13T16:48:57.509Z,74.23
2022-10-13T16:58:34.275Z,76.63
2022-10-13T17:08:11.013Z,77.47
2022-10-13T17:17:47.877Z,80.09
2022-10-13T17:27:24.399Z,83.38
2022-10-13T17:37:00.837Z,85
2022-10-13T17:46:38.902Z,86.14
2022-10-13T18:15:29.001Z,87.02
2022-10-13T18:25:05.741Z,87.82
2022-10-13T18:34:42.774Z,88.78
2022-10-13T18:44:19.901Z,88.56
2022-10-13T18:53:56.604Z,89.26
2022-10-13T19:03:33.617Z,90.1
2022-10-13T19:13:10.562Z,90.96
2022-10-13T19:22:46.951Z,92.45
2022-10-13T19:32:23.396Z,92.83
2022-10-13T19:41:59.835Z,93.2
2022-10-13T19:51:36.219Z,94.58
2022-10-13T20:20:26.763Z,98.57
2022-10-13T20:30:03.720Z,97.92
2022-10-13T20:39:40.717Z,99
2022-10-13T20:49:18.205Z,98.61
2022-10-13T20:58:55.605Z,98.77
2022-10-13T21:08:32.703Z,98.58
2022-10-13T21:18:10.076Z,98.99
2022-10-13T21:27:47.660Z,97.29
2022-10-13T21:37:24.534Z,97.41
2022-10-13T21:56:38.851Z,97.69
2022-10-13T22:06:18.681Z,99.73
2022-10-13T22:15:53.158Z,98.25
2022-10-13T22:25:30.214Z,100
2022-10-13T22:35:07.545Z,98.4
2022-10-13T22:44:44.522Z,100
2022-10-13T22:54:21.665Z,100
2022-10-13T23:03:58.861Z,100
2022-10-13T23:13:35.961Z,100
2022-10-13T23:23:12.964Z,100
2022-10-13T23:32:49.606Z,100
2022-10-13T23:42:26.760Z,100
2022-10-13T23:52:07.301Z,100
